createdAt,value
2017-05-24T00:00:14.439Z,0
2017-05-24T00:01:24.844Z,0
2017-05-24T00:02:34.893Z,0
2017-05-24T00:03:45.232Z,0
2017-05-24T00:04:54.640Z,0
2017-05-24T00:06:04.673Z,0
2017-05-24T00:07:15.049Z,0
2017-05-24T00:08:25.416Z,0
2017-05-24T00:09:35.764Z,0
2017-05-24T00:10:46.114Z,0
2017-05-24T00:11:56.470Z,0
2017-05-24T00:13:06.502Z,0
2017-05-24T00:14:16.858Z,0
2017-05-24T00:15:27.211Z,0
2017-05-24T00:16:37.553Z,0
2017-05-24T00:17:47.891Z,0
2017-05-24T00:18:58.238Z,0
2017-05-24T00:20:08.597Z,0
2017-05-24T00:21:18.333Z,0
2017-05-24T00:22:28.696Z,0
2017-05-24T00:23:39.100Z,0
2017-05-24T00:24:49.129Z,0
2017-05-24T00:25:59.478Z,0
2017-05-24T00:27:09.820Z,0
2017-05-24T00:28:20.176Z,0
2017-05-24T00:29:30.579Z,0
2017-05-24T00:30:40.616Z,0
2017-05-24T00:31:50.340Z,0
2017-05-24T00:33:00.712Z,0
2017-05-24T00:34:11.058Z,0
2017-05-24T00:35:21.457Z,0
2017-05-24T00:36:31.803Z,0
2017-05-24T00:37:42.154Z,0
2017-05-24T00:38:52.522Z,0
2017-05-24T00:40:02.551Z,0
2017-05-24T00:41:12.967Z,0
2017-05-24T00:42:23.313Z,0
2017-05-24T00:43:33.656Z,0
2017-05-24T00:44:44.013Z,0
2017-05-24T00:45:54.376Z,0
2017-05-24T00:47:04.741Z,0
2017-05-24T00:48:15.324Z,0
2017-05-24T00:49:25.671Z,0
2017-05-24T00:50:36.011Z,0
2017-05-24T00:51:46.354Z,0
2017-05-24T00:52:56.702Z,0
2017-05-24T00:54:06.755Z,0
2017-05-24T00:55:17.100Z,0
2017-05-24T00:56:27.145Z,0
2017-05-24T00:57:36.874Z,0
2017-05-24T00:58:47.284Z,0
2017-05-24T00:59:57.660Z,0
2017-05-24T01:01:08.019Z,0
2017-05-24T01:02:18.060Z,0
2017-05-24T01:03:28.427Z,0
2017-05-24T01:04:38.211Z,0
2017-05-24T01:05:48.550Z,0
2017-05-24T01:06:58.894Z,0
2017-05-24T01:08:08.946Z,0
2017-05-24T01:09:19.297Z,0
2017-05-24T01:10:29.687Z,0
2017-05-24T01:11:40.033Z,0
2017-05-24T01:12:50.385Z,0
2017-05-24T01:14:00.104Z,0
2017-05-24T01:15:10.444Z,0
2017-05-24T01:16:20.845Z,0
2017-05-24T01:17:30.892Z,0
2017-05-24T01:18:41.251Z,0
2017-05-24T01:19:51.611Z,0
2017-05-24T01:21:01.949Z,0
2017-05-24T01:22:12.302Z,0
2017-05-24T01:23:22.338Z,0
2017-05-24T01:24:32.692Z,0
2017-05-24T01:25:42.741Z,0
2017-05-24T01:26:52.774Z,0
2017-05-24T01:28:02.809Z,0
2017-05-24T01:29:12.842Z,0
2017-05-24T01:30:22.882Z,0
2017-05-24T01:31:33.229Z,0
2017-05-24T01:32:43.586Z,0
2017-05-24T01:33:53.993Z,0
2017-05-24T01:35:04.337Z,0
2017-05-24T01:36:14.747Z,0
2017-05-24T01:37:25.094Z,0
2017-05-24T01:38:35.124Z,0
2017-05-24T01:39:45.482Z,0
2017-05-24T01:40:55.531Z,0
2017-05-24T01:42:05.896Z,0
2017-05-24T01:43:16.249Z,0
2017-05-24T01:44:26.610Z,0
2017-05-24T01:45:36.653Z,0
2017-05-24T01:46:47.003Z,0
2017-05-24T01:47:57.031Z,0
2017-05-24T01:49:06.767Z,0
2017-05-24T01:50:16.813Z,0
2017-05-24T01:51:27.175Z,0
2017-05-24T01:52:37.523Z,0
2017-05-24T01:53:47.861Z,0
2017-05-24T01:54:58.206Z,0
2017-05-24T01:56:08.556Z,0
2017-05-24T01:57:18.903Z,0
2017-05-24T01:58:29.249Z,0
2017-05-24T01:59:39.288Z,0
2017-05-24T02:00:49.895Z,0
2017-05-24T02:02:00.247Z,0
2017-05-24T02:03:10.598Z,0
2017-05-24T02:04:20.946Z,0
2017-05-24T02:05:31.294Z,0
2017-05-24T02:06:41.329Z,0
2017-05-24T02:07:51.673Z,0
2017-05-24T02:09:01.785Z,0
2017-05-24T02:10:12.149Z,0
2017-05-24T02:11:22.506Z,0
2017-05-24T02:12:32.851Z,0
2017-05-24T02:13:43.215Z,0
2017-05-24T02:14:53.308Z,0
2017-05-24T02:16:03.668Z,0
2017-05-24T02:17:13.728Z,0
2017-05-24T02:18:23.786Z,0
2017-05-24T02:19:33.847Z,0
2017-05-24T02:20:44.353Z,0
2017-05-24T02:21:54.709Z,0
2017-05-24T02:23:05.108Z,0
2017-05-24T02:24:15.445Z,0
2017-05-24T02:25:25.792Z,0
2017-05-24T02:26:36.194Z,0
2017-05-24T02:27:45.939Z,0
2017-05-24T02:28:55.986Z,0
2017-05-24T02:30:06.341Z,0
2017-05-24T02:31:16.700Z,0
2017-05-24T02:32:27.046Z,0
2017-05-24T02:33:37.393Z,0
2017-05-24T02:34:47.430Z,0
2017-05-24T02:35:57.769Z,0
2017-05-24T02:37:08.124Z,0
2017-05-24T02:38:18.230Z,0
2017-05-24T02:39:28.284Z,0
2017-05-24T02:40:38.322Z,0
2017-05-24T02:41:48.720Z,0
2017-05-24T02:42:58.748Z,0
2017-05-24T02:44:09.112Z,0
2017-05-24T02:45:19.471Z,0
2017-05-24T02:46:29.812Z,0
2017-05-24T02:47:40.162Z,0
2017-05-24T02:48:50.186Z,0
2017-05-24T02:49:59.959Z,0
2017-05-24T02:51:10.008Z,0
2017-05-24T02:52:20.352Z,0
2017-05-24T02:53:30.704Z,0
2017-05-24T02:54:41.066Z,0
2017-05-24T02:55:51.417Z,0
2017-05-24T02:57:01.762Z,0
2017-05-24T02:58:11.801Z,0
2017-05-24T02:59:22.157Z,0
2017-05-24T03:00:32.512Z,0
2017-05-24T03:01:42.862Z,0
2017-05-24T03:33:11.654Z,5
2017-05-24T03:34:21.999Z,5
2017-05-24T03:35:31.999Z,5
2017-05-24T03:36:42.047Z,5
2017-05-24T03:37:52.383Z,5
2017-05-24T03:39:02.732Z,5
2017-05-24T03:40:12.749Z,5
2017-05-24T03:41:23.104Z,5
2017-05-24T03:42:33.439Z,5
2017-05-24T03:43:43.783Z,5
2017-05-24T03:44:54.241Z,5
2017-05-24T03:46:04.594Z,5
2017-05-24T03:47:14.950Z,10
2017-05-24T03:48:25.290Z,10
2017-05-24T03:49:35.645Z,15
2017-05-24T03:50:45.985Z,20
2017-05-24T03:51:56.332Z,25
2017-05-24T03:53:06.745Z,25
2017-05-24T03:54:17.106Z,30
2017-05-24T03:55:27.444Z,30
2017-05-24T03:56:37.765Z,35
2017-05-24T03:57:48.109Z,35
2017-05-24T03:58:58.454Z,35
2017-05-24T04:00:08.499Z,35
2017-05-24T04:01:18.845Z,35
2017-05-24T04:02:29.204Z,35
2017-05-24T04:03:39.571Z,35
2017-05-24T04:04:49.602Z,35
2017-05-24T04:05:59.949Z,35
2017-05-24T04:07:10.307Z,35
2017-05-24T04:08:20.670Z,35
2017-05-24T04:09:31.018Z,35
2017-05-24T04:10:41.055Z,35
2017-05-24T04:11:51.409Z,35
2017-05-24T04:13:01.975Z,40
2017-05-24T04:14:12.051Z,40
2017-05-24T04:15:22.393Z,40
2017-05-24T04:16:32.745Z,40
2017-05-24T04:17:42.776Z,45
2017-05-24T04:18:52.825Z,45
2017-05-24T04:20:03.219Z,45
2017-05-24T04:21:13.553Z,45
2017-05-24T04:22:23.908Z,50
2017-05-24T04:23:33.943Z,50
2017-05-24T04:24:44.293Z,50
2017-05-24T04:25:54.701Z,50
2017-05-24T04:27:05.056Z,50
2017-05-24T04:28:15.082Z,45
2017-05-24T04:29:24.873Z,40
2017-05-24T04:30:34.914Z,40
2017-05-24T04:31:45.007Z,40
2017-05-24T04:32:54.730Z,40
2017-05-24T04:34:05.089Z,45
2017-05-24T04:35:15.428Z,45
2017-05-24T04:36:25.794Z,40
2017-05-24T04:37:35.868Z,35
2017-05-24T04:38:46.231Z,40
2017-05-24T04:39:56.269Z,35
2017-05-24T04:41:06.629Z,35
2017-05-24T04:42:17.005Z,30
2017-05-24T04:43:27.412Z,25
2017-05-24T04:44:37.139Z,20
2017-05-24T04:45:47.561Z,20
2017-05-24T04:46:57.920Z,15
2017-05-24T04:48:08.259Z,20
2017-05-24T04:49:17.991Z,20
2017-05-24T04:50:28.347Z,25
2017-05-24T04:51:38.377Z,30
2017-05-24T04:52:48.722Z,35
2017-05-24T04:53:59.059Z,40
2017-05-24T04:55:09.392Z,40
2017-05-24T04:56:19.123Z,45
2017-05-24T04:57:29.514Z,50
2017-05-24T04:58:39.868Z,50
2017-05-24T04:59:49.905Z,55
2017-05-24T05:01:00.244Z,55
2017-05-24T05:02:10.612Z,55
2017-05-24T05:03:20.972Z,55
2017-05-24T05:04:31.339Z,55
2017-05-24T05:05:41.703Z,55
2017-05-24T05:06:51.734Z,60
2017-05-24T05:08:02.102Z,60
2017-05-24T05:09:12.448Z,65
2017-05-24T05:10:22.842Z,70
2017-05-24T05:11:32.876Z,75
2017-05-24T05:12:43.239Z,75
2017-05-24T05:13:53.314Z,80
2017-05-24T05:15:03.037Z,85
2017-05-24T05:16:13.144Z,90
2017-05-24T05:17:23.498Z,95
2017-05-24T05:18:33.518Z,105
2017-05-24T05:19:43.871Z,105
2017-05-24T05:20:53.918Z,105
2017-05-24T05:22:03.999Z,105
2017-05-24T05:23:14.365Z,105
2017-05-24T05:24:24.709Z,105
2017-05-24T05:25:35.116Z,105
2017-05-24T05:26:45.465Z,100
2017-05-24T05:27:55.812Z,100
2017-05-24T05:29:05.840Z,105
2017-05-24T05:30:16.185Z,105
2017-05-24T05:31:26.570Z,105
2017-05-24T05:32:36.942Z,105
2017-05-24T05:33:46.984Z,105
2017-05-24T05:34:57.328Z,105
2017-05-24T05:36:07.697Z,110
2017-05-24T05:37:18.051Z,110
2017-05-24T05:38:27.794Z,115
2017-05-24T05:39:38.186Z,120
2017-05-24T05:40:48.542Z,125
2017-05-24T05:41:58.588Z,130
2017-05-24T05:43:08.621Z,135
2017-05-24T05:44:19.031Z,135
2017-05-24T05:45:29.056Z,130
2017-05-24T05:46:39.406Z,120
2017-05-24T05:47:49.796Z,120
2017-05-24T05:48:59.841Z,125
2017-05-24T05:50:10.180Z,140
2017-05-24T05:51:20.538Z,145
2017-05-24T05:52:30.580Z,150
2017-05-24T05:53:40.953Z,155
2017-05-24T05:54:51.000Z,160
2017-05-24T05:56:01.361Z,160
2017-05-24T05:57:11.705Z,160
2017-05-24T05:58:22.072Z,155
2017-05-24T05:59:32.416Z,160
2017-05-24T06:00:42.458Z,160
2017-05-24T06:01:52.814Z,160
2017-05-24T06:03:03.211Z,165
2017-05-24T06:04:13.557Z,160
2017-05-24T06:05:23.622Z,165
2017-05-24T06:06:33.971Z,170
2017-05-24T06:07:44.329Z,180
2017-05-24T06:08:54.758Z,185
2017-05-24T06:10:10.708Z,205
2017-05-24T06:11:26.545Z,220
2017-05-24T06:12:43.877Z,230
2017-05-24T06:13:55.373Z,225
2017-05-24T06:15:05.780Z,215
2017-05-24T06:16:16.366Z,215
2017-05-24T06:17:26.714Z,210
2017-05-24T06:18:36.757Z,210
2017-05-24T06:19:46.858Z,230
2017-05-24T06:20:57.207Z,250
2017-05-24T06:22:07.643Z,270
2017-05-24T06:23:18.033Z,260
2017-05-24T06:24:28.093Z,320
2017-05-24T06:25:38.559Z,330
2017-05-24T06:26:48.957Z,405
2017-05-24T06:27:59.592Z,430
2017-05-24T06:29:09.964Z,435
2017-05-24T06:30:20.034Z,355
2017-05-24T06:31:30.431Z,425
2017-05-24T06:32:40.849Z,360
2017-05-24T06:33:51.183Z,455
2017-05-24T06:35:01.807Z,415
2017-05-24T06:36:11.843Z,340
2017-05-24T06:37:21.289Z,305
2017-05-24T06:38:31.712Z,300
2017-05-24T06:39:42.098Z,235
2017-05-24T06:40:52.162Z,210
2017-05-24T06:42:02.544Z,185
2017-05-24T06:43:12.925Z,165
2017-05-24T06:44:23.298Z,145
2017-05-24T06:45:33.675Z,135
2017-05-24T06:46:44.041Z,125
2017-05-24T06:47:54.144Z,115
2017-05-24T06:49:04.554Z,115
2017-05-24T06:50:14.931Z,120
2017-05-24T06:51:25.331Z,125
2017-05-24T06:52:35.709Z,135
2017-05-24T06:53:46.115Z,145
2017-05-24T06:54:56.242Z,155
2017-05-24T06:56:06.304Z,170
2017-05-24T06:57:16.694Z,190
2017-05-24T06:58:27.105Z,205
2017-05-24T06:59:37.482Z,210
2017-05-24T07:00:47.839Z,220
2017-05-24T07:01:58.331Z,240
2017-05-24T07:03:08.392Z,265
2017-05-24T07:04:18.773Z,285
2017-05-24T07:05:29.157Z,300
2017-05-24T07:06:39.554Z,300
2017-05-24T07:07:49.929Z,295
2017-05-24T07:09:00.306Z,275
2017-05-24T07:10:10.918Z,255
2017-05-24T07:11:21.281Z,225
2017-05-24T07:12:31.640Z,190
2017-05-24T07:13:42.029Z,175
2017-05-24T07:14:52.500Z,175
2017-05-24T07:16:02.871Z,180
2017-05-24T07:17:13.258Z,185
2017-05-24T07:18:23.660Z,190
2017-05-24T07:19:34.048Z,200
2017-05-24T07:20:44.406Z,205
2017-05-24T07:21:54.454Z,215
2017-05-24T07:23:04.502Z,225
2017-05-24T07:24:14.603Z,245
2017-05-24T07:25:24.955Z,260
2017-05-24T07:26:35.312Z,285
2017-05-24T07:27:45.369Z,300
2017-05-24T07:28:55.720Z,315
2017-05-24T07:30:06.138Z,325
2017-05-24T07:31:16.520Z,305
2017-05-24T07:32:26.571Z,325
2017-05-24T07:33:36.938Z,340
2017-05-24T07:34:47.378Z,350
2017-05-24T07:35:57.424Z,335
2017-05-24T07:37:07.803Z,300
2017-05-24T07:38:18.174Z,265
2017-05-24T07:39:28.552Z,235
2017-05-24T07:40:38.603Z,215
2017-05-24T07:41:48.655Z,205
2017-05-24T07:42:59.015Z,195
2017-05-24T07:44:09.367Z,195
2017-05-24T07:45:19.736Z,200
2017-05-24T07:46:30.101Z,215
2017-05-24T07:47:40.554Z,215
2017-05-24T07:48:50.943Z,225
2017-05-24T07:50:01.316Z,235
2017-05-24T07:51:11.680Z,250
2017-05-24T07:52:22.037Z,270
2017-05-24T07:53:32.454Z,280
2017-05-24T07:54:42.496Z,295
2017-05-24T07:55:52.876Z,285
2017-05-24T07:57:03.245Z,280
2017-05-24T07:58:13.302Z,295
2017-05-24T07:59:23.873Z,320
2017-05-24T08:00:34.230Z,335
2017-05-24T08:01:44.598Z,350
2017-05-24T08:02:54.997Z,365
2017-05-24T08:04:05.356Z,375
2017-05-24T08:05:15.144Z,375
2017-05-24T08:06:25.493Z,370
2017-05-24T08:07:35.864Z,360
2017-05-24T08:08:46.236Z,360
2017-05-24T08:09:56.631Z,370
2017-05-24T08:11:07.038Z,355
2017-05-24T08:12:17.395Z,355
2017-05-24T08:13:27.444Z,310
2017-05-24T08:14:37.804Z,290
2017-05-24T08:15:48.240Z,285
2017-05-24T08:16:58.299Z,290
2017-05-24T08:18:08.360Z,305
2017-05-24T08:19:18.724Z,320
2017-05-24T08:20:29.307Z,325
2017-05-24T08:21:39.370Z,355
2017-05-24T08:22:49.782Z,320
2017-05-24T08:24:00.155Z,310
2017-05-24T08:25:10.536Z,300
2017-05-24T08:26:20.897Z,280
2017-05-24T08:27:30.949Z,275
2017-05-24T08:28:41.003Z,275
2017-05-24T08:29:51.374Z,290
2017-05-24T08:31:01.750Z,300
2017-05-24T08:32:12.107Z,345
2017-05-24T08:33:22.179Z,290
2017-05-24T08:34:32.590Z,285
2017-05-24T08:35:42.925Z,305
2017-05-24T08:36:53.304Z,380
2017-05-24T08:38:03.686Z,395
2017-05-24T08:39:14.097Z,380
2017-05-24T08:40:24.479Z,375
2017-05-24T08:41:34.842Z,365
2017-05-24T08:42:45.206Z,355
2017-05-24T08:43:55.573Z,375
2017-05-24T08:45:05.956Z,365
2017-05-24T08:46:16.338Z,350
2017-05-24T08:47:26.709Z,330
2017-05-24T08:48:37.081Z,340
2017-05-24T08:49:47.145Z,345
2017-05-24T08:50:57.186Z,350
2017-05-24T08:52:07.538Z,315
2017-05-24T08:53:17.606Z,350
2017-05-24T08:54:27.973Z,350
2017-05-24T08:55:38.050Z,345
2017-05-24T08:56:48.111Z,345
2017-05-24T08:57:58.563Z,335
2017-05-24T08:59:08.598Z,325
2017-05-24T09:00:18.332Z,325
2017-05-24T09:01:28.405Z,320
2017-05-24T09:02:38.470Z,345
2017-05-24T09:03:48.895Z,350
2017-05-24T09:04:59.255Z,345
2017-05-24T09:06:09.643Z,345
2017-05-24T09:07:20.055Z,340
2017-05-24T09:08:30.442Z,340
2017-05-24T09:09:40.844Z,355
2017-05-24T09:10:50.582Z,360
2017-05-24T09:12:00.939Z,360
2017-05-24T09:13:11.319Z,355
2017-05-24T09:14:21.401Z,350
2017-05-24T09:15:31.816Z,325
2017-05-24T09:16:42.183Z,325
2017-05-24T09:17:52.568Z,335
2017-05-24T09:19:02.926Z,365
2017-05-24T09:20:13.291Z,375
2017-05-24T09:21:23.705Z,345
2017-05-24T09:22:34.278Z,335
2017-05-24T09:23:44.652Z,330
2017-05-24T09:24:55.063Z,310
2017-05-24T09:26:05.442Z,340
2017-05-24T09:27:15.489Z,380
2017-05-24T09:28:25.852Z,360
2017-05-24T09:29:36.413Z,340
2017-05-24T09:30:46.767Z,305
2017-05-24T09:31:57.118Z,310
2017-05-24T09:33:07.528Z,305
2017-05-24T09:34:17.575Z,315
2017-05-24T09:35:27.934Z,315
2017-05-24T09:36:38.313Z,320
2017-05-24T09:37:48.364Z,310
2017-05-24T09:38:58.730Z,300
2017-05-24T09:40:08.794Z,300
2017-05-24T09:41:18.832Z,320
2017-05-24T09:42:29.189Z,335
2017-05-24T09:43:39.535Z,345
2017-05-24T09:44:49.933Z,355
2017-05-24T09:45:59.986Z,420
2017-05-24T09:47:10.346Z,445
2017-05-24T09:48:20.407Z,425
2017-05-24T09:49:30.844Z,385
2017-05-24T09:50:41.267Z,375
2017-05-24T09:51:51.637Z,365
2017-05-24T09:53:02.001Z,350
2017-05-24T09:54:12.368Z,335
2017-05-24T09:55:22.744Z,325
2017-05-24T09:56:33.166Z,375
2017-05-24T09:57:43.539Z,325
2017-05-24T09:58:53.900Z,300
2017-05-24T10:00:03.940Z,290
2017-05-24T10:01:14.315Z,285
2017-05-24T10:02:39.298Z,355
2017-05-24T10:03:49.354Z,380
2017-05-24T10:04:59.093Z,380
2017-05-24T10:06:08.834Z,425
2017-05-24T10:07:18.882Z,410
2017-05-24T10:08:29.308Z,405
2017-05-24T10:09:39.666Z,385
2017-05-24T10:10:49.786Z,380
2017-05-24T10:11:59.851Z,310
2017-05-24T10:13:09.896Z,260
2017-05-24T10:14:20.275Z,235
2017-05-24T10:15:30.326Z,215
2017-05-24T10:16:40.432Z,195
2017-05-24T10:17:50.813Z,195
2017-05-24T10:19:00.871Z,195
2017-05-24T10:20:10.926Z,170
2017-05-24T10:21:20.973Z,150
2017-05-24T10:22:31.447Z,130
2017-05-24T10:23:41.813Z,110
2017-05-24T10:24:52.169Z,100
2017-05-24T10:26:02.553Z,85
2017-05-24T10:27:12.598Z,60
2017-05-24T10:28:23.061Z,35
2017-05-24T10:29:33.458Z,25
2017-05-24T10:30:43.853Z,25
2017-05-24T10:31:53.917Z,35
2017-05-24T10:33:04.312Z,50
2017-05-24T10:34:14.705Z,75
2017-05-24T10:35:25.083Z,75
2017-05-24T10:36:35.170Z,80
2017-05-24T10:37:45.550Z,90
2017-05-24T10:38:55.934Z,95
2017-05-24T10:40:06.357Z,95
2017-05-24T10:41:16.749Z,115
2017-05-24T10:42:27.114Z,150
2017-05-24T10:43:37.191Z,180
2017-05-24T10:44:47.584Z,185
2017-05-24T10:45:58.041Z,175
2017-05-24T10:47:07.930Z,165
2017-05-24T10:48:17.942Z,185
2017-05-24T10:49:28.613Z,205
2017-05-24T10:50:38.980Z,225
2017-05-24T10:51:49.407Z,250
2017-05-24T10:52:59.783Z,275
2017-05-24T10:54:10.159Z,300
2017-05-24T10:55:20.207Z,310
2017-05-24T10:56:30.564Z,310
2017-05-24T10:57:41.261Z,305
2017-05-24T10:58:51.644Z,295
2017-05-24T11:00:01.951Z,290
2017-05-24T11:01:11.996Z,295
2017-05-24T11:02:22.363Z,305
2017-05-24T11:03:32.456Z,310
2017-05-24T11:04:42.517Z,310
2017-05-24T11:05:52.901Z,315
2017-05-24T11:07:03.273Z,325
2017-05-24T11:08:13.353Z,305
2017-05-24T11:09:23.766Z,280
2017-05-24T11:10:33.805Z,260
2017-05-24T11:11:43.866Z,245
2017-05-24T11:12:54.228Z,240
2017-05-24T11:14:04.616Z,260
2017-05-24T11:15:15.071Z,260
2017-05-24T11:16:25.438Z,270
2017-05-24T11:17:35.866Z,265
2017-05-24T11:18:45.918Z,245
2017-05-24T11:19:56.553Z,225
2017-05-24T11:21:06.618Z,255
2017-05-24T11:22:16.684Z,295
2017-05-24T11:23:27.052Z,305
2017-05-24T11:24:37.150Z,285
2017-05-24T11:25:47.567Z,290
2017-05-24T11:26:57.978Z,305
2017-05-24T11:28:08.342Z,305
2017-05-24T11:29:18.712Z,305
2017-05-24T11:30:29.060Z,290
2017-05-24T11:31:39.439Z,265
2017-05-24T11:32:49.844Z,245
2017-05-24T11:34:00.234Z,195
2017-05-24T11:35:10.602Z,155
2017-05-24T11:36:20.674Z,145
2017-05-24T11:37:31.047Z,150
2017-05-24T11:38:41.137Z,155
2017-05-24T11:39:51.169Z,155
2017-05-24T11:41:01.515Z,155
2017-05-24T11:42:11.871Z,160
2017-05-24T11:43:22.230Z,195
2017-05-24T11:44:32.289Z,220
2017-05-24T11:45:42.671Z,235
2017-05-24T11:46:52.404Z,245
2017-05-24T11:48:02.777Z,250
2017-05-24T11:49:13.131Z,250
2017-05-24T11:50:23.551Z,265
2017-05-24T11:51:33.909Z,275
2017-05-24T11:52:44.286Z,260
2017-05-24T11:53:54.766Z,230
2017-05-24T11:55:05.129Z,210
2017-05-24T11:56:15.190Z,210
2017-05-24T11:57:25.568Z,220
2017-05-24T11:58:35.940Z,250
2017-05-24T11:59:45.988Z,275
2017-05-24T12:00:56.380Z,295
2017-05-24T12:02:06.796Z,290
2017-05-24T12:03:17.162Z,295
2017-05-24T12:04:27.528Z,320
2017-05-24T12:05:37.883Z,325
2017-05-24T12:06:47.983Z,330
2017-05-24T12:07:58.442Z,330
2017-05-24T12:09:08.813Z,305
2017-05-24T12:10:18.874Z,310
2017-05-24T12:11:29.233Z,330
2017-05-24T12:12:39.599Z,325
2017-05-24T12:13:49.700Z,320
2017-05-24T12:14:59.443Z,315
2017-05-24T12:16:09.481Z,305
2017-05-24T12:17:19.235Z,280
2017-05-24T12:18:29.629Z,280
2017-05-24T12:19:40.053Z,280
2017-05-24T12:20:50.112Z,285
2017-05-24T12:22:00.482Z,280
2017-05-24T12:23:10.916Z,305
2017-05-24T12:24:21.278Z,340
2017-05-24T12:25:31.697Z,375
2017-05-24T12:26:42.057Z,380
2017-05-24T12:27:51.823Z,410
2017-05-24T12:29:01.879Z,400
2017-05-24T12:30:11.919Z,395
2017-05-24T12:31:22.326Z,400
2017-05-24T12:32:32.699Z,380
2017-05-24T12:33:43.061Z,385
2017-05-24T12:34:53.425Z,380
2017-05-24T12:36:03.469Z,315
2017-05-24T12:37:13.634Z,400
2017-05-24T12:38:24.011Z,400
2017-05-24T12:39:34.403Z,385
2017-05-24T12:40:44.831Z,335
2017-05-24T12:41:54.904Z,375
2017-05-24T12:43:05.366Z,370
2017-05-24T12:44:15.732Z,325
2017-05-24T12:45:25.783Z,320
2017-05-24T12:46:36.135Z,255
2017-05-24T12:47:46.210Z,290
2017-05-24T12:48:56.624Z,290
2017-05-24T12:50:07.005Z,230
2017-05-24T12:51:17.363Z,255
2017-05-24T12:52:27.717Z,270
2017-05-24T12:53:38.080Z,315
2017-05-24T12:54:48.504Z,270
2017-05-24T12:55:58.858Z,260
2017-05-24T12:57:09.231Z,275
2017-05-24T12:58:18.975Z,290
2017-05-24T12:59:29.331Z,240
2017-05-24T13:00:39.419Z,265
2017-05-24T13:01:49.158Z,300
2017-05-24T13:02:59.237Z,300
2017-05-24T13:04:09.284Z,300
2017-05-24T13:05:19.673Z,305
2017-05-24T13:06:30.094Z,310
2017-05-24T13:07:40.455Z,305
2017-05-24T13:08:50.505Z,295
2017-05-24T13:10:00.885Z,295
2017-05-24T13:11:11.257Z,290
2017-05-24T13:12:21.664Z,250
2017-05-24T13:13:31.724Z,280
2017-05-24T13:14:41.473Z,280
2017-05-24T13:15:51.835Z,285
2017-05-24T13:17:02.203Z,285
2017-05-24T13:18:12.636Z,290
2017-05-24T13:19:22.999Z,285
2017-05-24T13:20:33.353Z,280
2017-05-24T13:21:43.721Z,270
2017-05-24T13:22:54.073Z,285
2017-05-24T13:24:04.499Z,240
2017-05-24T13:25:14.872Z,210
2017-05-24T13:26:25.255Z,305
2017-05-24T13:27:35.312Z,305
2017-05-24T13:28:45.708Z,330
2017-05-24T13:29:56.125Z,260
2017-05-24T13:31:06.481Z,345
2017-05-24T13:32:16.535Z,290
2017-05-24T13:33:26.596Z,230
2017-05-24T13:34:36.963Z,240
2017-05-24T13:35:47.370Z,205
2017-05-24T13:36:57.742Z,195
2017-05-24T13:38:08.142Z,190
2017-05-24T13:39:18.512Z,200
2017-05-24T13:40:28.896Z,210
2017-05-24T13:41:38.992Z,210
2017-05-24T13:42:49.050Z,220
2017-05-24T13:43:59.417Z,205
2017-05-24T13:45:09.479Z,200
2017-05-24T13:46:19.843Z,215
2017-05-24T13:47:30.257Z,215
2017-05-24T13:48:40.318Z,275
2017-05-24T13:49:50.689Z,245
2017-05-24T13:51:01.089Z,280
2017-05-24T13:52:11.454Z,265
2017-05-24T13:53:21.864Z,240
2017-05-24T13:54:31.942Z,225
2017-05-24T13:55:42.019Z,255
2017-05-24T13:56:52.086Z,255
2017-05-24T13:58:02.465Z,265
2017-05-24T13:59:12.883Z,275
2017-05-24T14:00:23.249Z,280
2017-05-24T14:01:33.607Z,300
2017-05-24T14:02:43.980Z,285
2017-05-24T14:03:54.059Z,290
2017-05-24T14:05:04.476Z,280
2017-05-24T14:06:14.538Z,275
2017-05-24T14:07:24.901Z,180
2017-05-24T14:08:35.257Z,250
2017-05-24T14:09:45.640Z,230
2017-05-24T14:10:56.049Z,160
2017-05-24T14:12:06.116Z,245
2017-05-24T14:13:16.485Z,230
2017-05-24T14:14:26.861Z,250
2017-05-24T14:15:36.904Z,240
2017-05-24T14:16:47.286Z,230
2017-05-24T14:17:57.660Z,225
2017-05-24T14:19:08.036Z,225
2017-05-24T14:20:18.393Z,210
2017-05-24T14:21:28.828Z,140
2017-05-24T14:22:39.004Z,150
2017-05-24T14:23:49.373Z,225
2017-05-24T14:24:59.751Z,155
2017-05-24T14:26:10.135Z,190
2017-05-24T14:27:20.200Z,145
2017-05-24T14:28:30.622Z,220
2017-05-24T14:29:40.980Z,225
2017-05-24T14:30:51.366Z,225
2017-05-24T14:32:01.146Z,205
2017-05-24T14:33:11.556Z,200
2017-05-24T14:34:21.987Z,245
2017-05-24T14:35:32.357Z,250
2017-05-24T14:36:42.403Z,225
2017-05-24T14:37:52.447Z,250
2017-05-24T14:39:02.812Z,240
2017-05-24T14:40:13.244Z,240
2017-05-24T14:41:23.637Z,230
2017-05-24T14:42:34.012Z,250
2017-05-24T14:43:44.376Z,245
2017-05-24T14:44:54.723Z,205
2017-05-24T14:46:05.352Z,220
2017-05-24T14:47:15.703Z,215
2017-05-24T14:48:26.080Z,205
2017-05-24T14:49:36.467Z,190
2017-05-24T14:50:46.844Z,205
2017-05-24T14:51:56.588Z,200
2017-05-24T14:53:06.963Z,125
2017-05-24T14:54:17.343Z,125
2017-05-24T14:55:27.707Z,140
2017-05-24T14:56:37.758Z,160
2017-05-24T14:57:48.176Z,210
2017-05-24T14:58:57.908Z,215
2017-05-24T15:00:08.273Z,175
2017-05-24T15:01:18.644Z,135
2017-05-24T15:02:29.032Z,140
2017-05-24T15:03:39.137Z,150
2017-05-24T15:04:49.530Z,165
2017-05-24T15:06:00.167Z,225
2017-05-24T15:07:10.217Z,240
2017-05-24T15:08:20.253Z,240
2017-05-24T15:09:30.306Z,235
2017-05-24T15:10:40.669Z,175
2017-05-24T15:11:51.045Z,190
2017-05-24T15:13:01.414Z,180
2017-05-24T15:14:11.836Z,165
2017-05-24T15:15:21.948Z,145
2017-05-24T15:16:32.329Z,150
2017-05-24T15:17:42.702Z,170
2017-05-24T15:18:53.093Z,180
2017-05-24T15:20:03.479Z,180
2017-05-24T15:21:13.838Z,150
2017-05-24T15:22:24.211Z,145
2017-05-24T15:23:34.577Z,150
2017-05-24T15:24:44.941Z,170
2017-05-24T15:25:55.301Z,185
2017-05-24T15:27:05.732Z,155
2017-05-24T15:28:16.095Z,145
2017-05-24T15:29:26.170Z,145
2017-05-24T15:30:36.224Z,145
2017-05-24T15:31:46.281Z,145
2017-05-24T15:32:56.734Z,150
2017-05-24T15:34:07.105Z,150
2017-05-24T15:35:17.489Z,210
2017-05-24T15:36:27.873Z,215
2017-05-24T15:37:38.241Z,185
2017-05-24T15:38:48.355Z,180
2017-05-24T15:39:58.409Z,175
2017-05-24T15:41:08.791Z,160
2017-05-24T15:42:19.163Z,140
2017-05-24T15:43:29.551Z,125
2017-05-24T15:44:39.961Z,120
2017-05-24T15:45:50.336Z,120
2017-05-24T15:47:00.687Z,125
2017-05-24T15:48:11.110Z,125
2017-05-24T15:49:21.463Z,135
2017-05-24T15:50:31.885Z,150
2017-05-24T15:51:42.266Z,145
2017-05-24T15:52:52.315Z,145
2017-05-24T15:54:02.694Z,135
2017-05-24T15:55:13.121Z,125
2017-05-24T15:56:23.305Z,120
2017-05-24T15:57:33.362Z,125
2017-05-24T15:58:43.719Z,125
2017-05-24T15:59:54.108Z,125
2017-05-24T16:01:04.466Z,125
2017-05-24T16:02:14.573Z,130
2017-05-24T16:03:24.950Z,130
2017-05-24T16:04:35.312Z,130
2017-05-24T16:05:45.373Z,135
2017-05-24T16:06:55.468Z,145
2017-05-24T16:08:05.873Z,155
2017-05-24T16:09:16.239Z,165
2017-05-24T16:10:26.607Z,160
2017-05-24T16:11:36.697Z,145
2017-05-24T16:12:46.752Z,145
2017-05-24T16:13:56.815Z,140
2017-05-24T16:15:07.188Z,135
2017-05-24T16:16:17.552Z,135
2017-05-24T16:17:27.303Z,140
2017-05-24T16:18:37.358Z,140
2017-05-24T16:19:47.796Z,140
2017-05-24T16:20:58.162Z,140
2017-05-24T16:22:08.556Z,120
2017-05-24T16:23:18.931Z,125
2017-05-24T16:24:29.000Z,135
2017-05-24T16:25:39.448Z,130
2017-05-24T16:26:49.833Z,110
2017-05-24T16:28:00.228Z,105
2017-05-24T16:29:10.604Z,105
2017-05-24T16:30:20.966Z,115
2017-05-24T16:31:31.389Z,120
2017-05-24T16:32:41.460Z,130
2017-05-24T16:33:51.842Z,135
2017-05-24T16:35:02.219Z,130
2017-05-24T16:36:12.283Z,125
2017-05-24T16:37:22.632Z,110
2017-05-24T16:38:32.937Z,110
2017-05-24T16:39:43.310Z,110
2017-05-24T16:40:53.693Z,95
2017-05-24T16:42:03.737Z,105
2017-05-24T16:43:14.156Z,85
2017-05-24T16:44:24.241Z,85
2017-05-24T16:45:34.605Z,75
2017-05-24T16:46:44.640Z,75
2017-05-24T16:47:55.017Z,70
2017-05-24T16:49:05.477Z,70
2017-05-24T16:50:15.845Z,65
2017-05-24T16:51:25.907Z,65
2017-05-24T16:52:35.645Z,65
2017-05-24T16:53:46.010Z,65
2017-05-24T16:54:56.390Z,65
2017-05-24T16:56:06.753Z,65